Time;durP1;ratioP1;P1;durP2;ratioP2;P2;SDS_P1;SDS_P2;PMS_P1;PMS_P2;Temp;Humidity;BMP_temperature;BMP_pressure;BME280_temperature;BME280_humidity;BME280_pressure;Samples;Min_cycle;Max_cycle;Signal;HPM_P1;HPM_P2
2021/03/22 04:06:22;;;;;;;24.92;17.05;;;;;;;-0.05;100.00;99843.83;1756715;78;21136;-60
2021/03/22 04:08:55;;;;;;;23.57;16.23;;;;;;;0.98;100.00;99842.47;1796878;79;21599;-59
2021/03/22 04:11:30;;;;;;;24.32;15.53;;;;;;;1.77;100.00;99829.56;1747685;80;21055;-60
2021/03/22 04:13:59;;;;;;;20.02;14.95;;;;;;;2.54;100.00;99827.29;1757783;80;21208;-60
2021/03/22 04:16:31;;;;;;;21.83;16.57;;;;;;;3.25;100.00;99827.89;1757466;80;21128;-60
2021/03/22 04:19:00;;;;;;;20.82;15.30;;;;;;;3.78;100.00;99823.69;1758322;80;21053;-64
2021/03/22 04:21:31;;;;;;;22.10;16.27;;;;;;;4.31;100.00;99830.48;1748370;80;22180;-60
2021/03/22 04:24:00;;;;;;;24.18;16.48;;;;;;;4.88;100.00;99828.95;1758141;80;21136;-60
2021/03/22 04:26:29;;;;;;;20.92;15.48;;;;;;;5.45;100.00;99824.39;1758185;80;21155;-60
2021/03/22 04:28:57;;;;;;;22.77;16.17;;;;;;;5.99;100.00;99819.58;1757683;80;21153;-65
2021/03/22 04:31:27;;;;;;;20.82;15.45;;;;;;;6.51;100.00;99824.30;1758093;80;21238;-60
2021/03/22 04:33:56;;;;;;;23.30;18.93;;;;;;;7.01;100.00;99814.05;1758185;80;21152;-62
2021/03/22 04:36:29;;;;;;;39.27;30.80;;;;;;;7.37;100.00;99803.13;1756871;80;21318;-60
2021/03/22 04:38:57;;;;;;;24.50;20.13;;;;;;;7.61;100.00;99806.50;1754666;80;21424;-68
2021/03/22 04:41:26;;;;;;;46.03;39.40;;;;;;;7.73;100.00;99802.53;1759816;80;22234;-60
2021/03/22 04:43:54;;;;;;;54.27;48.40;;;;;;;8.09;91.71;99807.05;1762079;80;21450;-62
2021/03/22 04:46:22;;;;;;;25.63;20.93;;;;;;;8.09;91.71;99807.05;1750837;79;22002;-62
2021/03/22 04:48:53;;;;;;;24.57;19.37;;;;;;;8.38;92.87;99809.70;1749329;80;21753;-61
2021/03/22 04:51:23;;;;;;;25.13;21.10;;;;;;;8.75;86.13;99802.74;1755607;80;21856;-62
2021/03/22 04:53:52;;;;;;;26.43;20.90;;;;;;;9.00;79.11;99803.23;1757763;80;21932;-62
2021/03/22 04:56:21;;;;;;;22.33;16.93;;;;;;;9.19;76.81;99803.94;1745452;80;21268;-61
2021/03/22 04:58:49;;;;;;;21.97;15.77;;;;;;;9.52;74.79;99796.15;1754932;80;21013;-61
2021/03/22 05:01:17;;;;;;;21.43;16.87;;;;;;;9.94;67.79;99791.36;1755400;79;21703;-61
2021/03/22 05:03:46;;;;;;;17.97;15.70;;;;;;;10.23;64.86;99793.75;1758057;80;21197;-62
2021/03/22 05:06:14;;;;;;;22.53;20.13;;;;;;;10.45;61.50;99799.72;1730844;81;21125;-62
2021/03/22 05:08:44;;;;;;;23.40;20.67;;;;;;;10.60;58.70;99801.36;1729434;82;20971;-62
2021/03/22 05:11:12;;;;;;;21.77;17.87;;;;;;;10.65;56.15;99795.09;1721956;82;21106;-61
2021/03/22 05:13:41;;;;;;;29.27;25.60;;;;;;;10.63;55.85;99793.16;1730008;82;21149;-61
2021/03/22 05:16:12;;;;;;;21.50;18.13;;;;;;;10.46;56.45;99797.41;1730152;82;21381;-61
2021/03/22 05:18:41;;;;;;;24.55;22.00;;;;;;;10.09;57.04;99793.86;1729520;82;21177;-61
2021/03/22 05:21:10;;;;;;;20.37;17.80;;;;;;;9.60;57.53;99796.02;1732237;81;21148;-61
2021/03/22 05:23:39;;;;;;;19.73;16.20;;;;;;;8.97;59.05;99799.20;1725799;82;21181;-60
2021/03/22 05:26:09;;;;;;;19.93;16.33;;;;;;;8.33;63.93;99797.70;1732117;82;21240;-60
2021/03/22 05:28:40;;;;;;;27.57;23.83;;;;;;;7.70;64.75;99806.77;1732718;82;22331;-67
2021/03/22 05:31:09;;;;;;;22.40;19.25;;;;;;;7.07;72.46;99804.77;1716780;82;21895;-60
2021/03/22 05:33:37;;;;;;;27.40;23.17;;;;;;;6.63;78.14;99806.63;1736919;82;21300;-60
2021/03/22 05:36:07;;;;;;;20.10;16.17;;;;;;;6.34;81.98;99803.33;1746076;81;21405;-60
2021/03/22 05:38:36;;;;;;;22.97;18.43;;;;;;;6.20;90.45;99811.77;1735002;81;21402;-60
2021/03/22 05:41:15;;;;;;;23.38;19.37;;;;;;;6.20;93.55;99809.98;1709478;81;21235;-61
2021/03/22 05:43:51;;;;;;;18.73;15.27;;;;;;;6.20;94.21;99809.98;1737504;81;21069;-60
2021/03/22 05:46:43;;;;;;;16.90;13.17;;;;;;;6.25;93.56;99809.48;1739203;81;21360;-65
2021/03/22 05:49:49;;;;;;;16.33;11.37;;;;;;;6.26;90.58;99807.23;1745761;81;21442;-59
2021/03/22 05:52:26;;;;;;;15.30;11.60;;;;;;;6.13;92.00;99815.98;1738734;81;21478;-59
2021/03/22 05:55:34;;;;;;;16.00;11.73;;;;;;;5.98;92.71;99825.70;1745994;81;21697;-59
2021/03/22 05:58:42;;;;;;;17.20;12.23;;;;;;;5.91;93.98;99824.73;1747393;80;21375;-61
2021/03/22 06:01:28;;;;;;;16.37;12.18;;;;;;;5.88;94.08;99826.84;1748635;80;21935;-59
2021/03/22 06:04:02;;;;;;;18.63;12.90;;;;;;;5.86;95.65;99821.81;1750776;80;21191;-59
2021/03/22 06:06:35;;;;;;;;;;;;;;;5.96;94.94;99821.20;1741613;80;22190;-59
2021/03/22 06:09:42;;;;;;;15.93;12.00;;;;;;;6.06;93.00;99820.55;1736266;80;20671;-59
2021/03/22 06:12:21;;;;;;;17.17;12.73;;;;;;;6.14;91.71;99817.59;1739591;80;21525;-60
2021/03/22 06:15:17;;;;;;;15.45;11.90;;;;;;;6.22;90.60;99817.60;1741275;80;22302;-60
2021/03/22 06:18:06;;;;;;;14.47;10.30;;;;;;;6.27;90.45;99815.31;1761558;79;22057;-60
2021/03/22 06:20:39;;;;;;;17.93;11.73;;;;;;;6.32;88.14;99813.03;1774732;79;21777;-61
2021/03/22 06:23:26;;;;;;;;;;;;;;;6.30;87.47;99814.50;1768672;79;21178;-58
2021/03/22 06:25:54;;;;;;;17.57;13.35;;;;;;;6.29;88.91;99815.97;1771225;79;20208;-58
2021/03/22 06:28:29;;;;;;;16.97;12.03;;;;;;;6.24;86.14;99815.16;1773449;79;21205;-65
2021/03/22 06:31:12;;;;;;;15.90;10.77;;;;;;;6.07;85.87;99809.70;1763173;79;21923;-58
2021/03/22 06:33:46;;;;;;;15.67;10.33;;;;;;;5.86;88.53;99806.30;1777618;79;21375;-60
2021/03/22 06:36:20;;;;;;;14.28;10.15;;;;;;;5.63;90.67;99804.86;1759867;79;21304;-64
2021/03/22 06:38:58;;;;;;;16.05;11.70;;;;;;;5.49;92.85;99805.03;1766735;79;21183;-59
2021/03/22 06:41:33;;;;;;;17.98;11.95;;;;;;;5.36;93.84;99799.03;1729366;80;21084;-59
2021/03/22 06:44:09;;;;;;;16.70;12.05;;;;;;;5.27;96.12;99803.08;1717149;81;21018;-60
2021/03/22 06:46:59;;;;;;;17.30;11.53;;;;;;;5.28;99.20;99804.69;1724788;82;21084;-61
2021/03/22 06:49:44;;;;;;;18.67;12.60;;;;;;;5.39;100.00;99802.28;1736499;80;22201;-65
2021/03/22 06:52:19;;;;;;;20.20;12.25;;;;;;;5.46;100.00;99801.47;1739961;80;21046;-59
2021/03/22 06:54:55;;;;;;;20.15;12.68;;;;;;;5.35;97.21;99802.59;1740627;80;21180;-59
2021/03/22 06:57:28;;;;;;;21.12;13.35;;;;;;;5.17;98.73;99806.28;1734805;80;21112;-60
2021/03/22 07:00:17;;;;;;;20.12;13.00;;;;;;;5.07;100.00;99801.24;1745963;80;21105;-60
2021/03/22 07:02:59;;;;;;;18.98;13.38;;;;;;;5.07;100.00;99798.17;1717183;81;22043;-65
2021/03/22 07:05:38;;;;;;;21.70;14.13;;;;;;;5.01;100.00;99799.31;1731596;81;21235;-60
2021/03/22 07:08:12;;;;;;;18.67;13.32;;;;;;;4.98;100.00;99800.42;1739850;80;21158;-60
2021/03/22 07:11:04;;;;;;;33.25;21.02;;;;;;;4.98;100.00;99795.75;1743900;80;21073;-60
2021/03/22 07:13:33;;;;;;;27.05;18.60;;;;;;;5.01;100.00;99788.49;1742484;80;21149;-59
2021/03/22 07:16:19;;;;;;;22.40;14.65;;;;;;;5.01;100.00;99789.78;1749315;80;21199;-65
2021/03/22 07:19:18;;;;;;;19.98;13.35;;;;;;;5.01;100.00;99797.53;1743650;80;21154;-61
2021/03/22 07:22:04;;;;;;;19.90;14.13;;;;;;;5.00;100.00;99795.09;1736460;80;21162;-60
2021/03/22 07:25:23;;;;;;;20.77;15.15;;;;;;;4.93;100.00;99792.35;1735775;80;21579;-59
2021/03/22 07:27:52;;;;;;;22.02;14.47;;;;;;;4.89;100.00;99793.64;1737817;81;21205;-59
2021/03/22 07:31:02;;;;;;;15.68;12.15;;;;;;;4.88;100.00;99782.47;1722312;80;21290;-58
2021/03/22 07:33:59;;;;;;;17.15;12.35;;;;;;;4.85;100.00;99785.39;1748923;79;20995;-61
2021/03/22 07:36:46;;;;;;;21.85;13.25;;;;;;;4.80;100.00;99788.11;1697922;80;21239;-59
2021/03/22 07:39:29;;;;;;;17.73;13.80;;;;;;;4.79;100.00;99789.08;1747399;80;21220;-62
2021/03/22 07:42:21;;;;;;;17.37;11.57;;;;;;;4.80;100.00;99793.27;1735281;80;21119;-61
2021/03/22 07:45:20;;;;;;;12.57;9.10;;;;;;;4.82;100.00;99789.57;1738336;80;21217;-61
2021/03/22 07:48:06;;;;;;;12.85;7.95;;;;;;;4.88;100.00;99788.13;1743426;80;21154;-60
2021/03/22 07:50:59;;;;;;;16.57;10.15;;;;;;;4.94;100.00;99787.99;1748038;79;20998;-61
2021/03/22 07:53:47;;;;;;;11.85;8.05;;;;;;;4.98;100.00;99786.70;1724174;79;21209;-62
2021/03/22 07:56:53;;;;;;;11.10;7.87;;;;;;;5.00;100.00;99784.30;1751599;80;22449;-58
2021/03/22 07:59:45;;;;;;;12.03;7.97;;;;;;;5.11;100.00;99789.63;1758808;80;21400;-64
2021/03/22 08:02:44;;;;;;;11.77;7.50;;;;;;;5.25;99.95;99781.73;1766412;79;23349;-60
2021/03/22 08:05:38;;;;;;;10.88;7.45;;;;;;;5.25;100.00;99777.86;1721814;81;21085;-60
2021/03/22 08:08:26;;;;;;;10.78;6.40;;;;;;;5.36;96.62;99778.84;1721584;82;21415;-62
2021/03/22 08:11:12;;;;;;;9.33;6.28;;;;;;;5.45;93.07;99775.28;1721542;82;21041;-60
2021/03/22 08:13:55;;;;;;;9.60;6.35;;;;;;;5.53;87.25;99770.59;1720648;82;21028;-60
2021/03/22 08:16:45;;;;;;;7.62;4.72;;;;;;;5.55;79.81;99768.17;1720992;82;21203;-60
2021/03/22 08:19:46;;;;;;;6.87;4.80;;;;;;;5.54;73.74;99766.56;1737189;82;21016;-63
2021/03/22 08:22:39;;;;;;;7.42;4.75;;;;;;;5.49;68.88;99763.67;1723329;82;21197;-60
2021/03/22 08:25:41;;;;;;;7.17;4.33;;;;;;;5.46;67.60;99765.77;1728723;82;21005;-60
2021/03/22 08:28:26;;;;;;;6.85;3.83;;;;;;;5.45;66.61;99754.59;1722305;81;21014;-65
2021/03/22 08:31:12;;;;;;;7.60;4.97;;;;;;;5.46;65.82;99754.14;1724841;82;21007;-61
2021/03/22 08:34:14;;;;;;;7.78;4.65;;;;;;;5.46;65.66;99746.39;1721434;82;21176;-66
2021/03/22 08:36:51;;;;;;;6.50;4.22;;;;;;;5.49;67.62;99748.16;1731439;82;21706;-61
2021/03/22 08:39:32;;;;;;;8.40;5.03;;;;;;;5.64;64.88;99748.28;1731383;80;21132;-59
2021/03/22 08:42:19;;;;;;;;;;;;;;;5.69;59.97;99740.06;1733112;82;21124;-61
2021/03/22 08:45:14;;;;;;;9.20;4.83;;;;;;;5.63;62.57;99733.75;1727044;82;20255;-67
2021/03/22 08:47:59;;;;;;;7.60;4.62;;;;;;;5.73;65.24;99733.09;1723552;82;21185;-59
2021/03/22 08:50:33;;;;;;;6.70;4.55;;;;;;;5.92;61.94;99730.67;1723362;82;21214;-60
2021/03/22 08:53:12;;;;;;;8.28;5.75;;;;;;;6.04;56.95;99733.21;1718937;82;21212;-63
2021/03/22 08:55:50;;;;;;;8.55;5.90;;;;;;;6.14;57.68;99721.39;1715113;82;21009;-58
2021/03/22 08:58:35;;;;;;;7.95;5.47;;;;;;;6.33;58.91;99719.69;1720249;82;21172;-59
2021/03/22 09:01:21;;;;;;;8.00;5.35;;;;;;;6.62;59.54;99710.97;1727243;81;21148;-61
2021/03/22 09:03:51;;;;;;;6.42;4.20;;;;;;;7.00;55.04;99707.47;1741197;81;21385;-59
2021/03/22 09:06:27;;;;;;;6.58;4.58;;;;;;;7.27;50.96;99696.25;1709914;80;21220;-59
2021/03/22 09:09:05;;;;;;;7.00;4.57;;;;;;;7.39;50.65;99697.45;1737729;81;21256;-60
2021/03/22 09:11:49;;;;;;;9.27;4.80;;;;;;;7.56;49.29;99691.62;1725860;81;22233;-61
2021/03/22 09:14:29;;;;;;;6.10;4.00;;;;;;;7.78;50.09;99693.83;1729598;80;21407;-63
2021/03/22 09:16:58;;;;;;;6.17;3.93;;;;;;;8.20;49.62;99689.28;1677071;83;21264;-67
2021/03/22 09:19:40;;;;;;;7.27;4.57;;;;;;;8.66;44.88;99678.64;1696948;83;21544;-62
2021/03/22 09:22:16;;;;;;;8.10;4.27;;;;;;;9.07;44.52;99678.02;1666750;84;21486;-60
2021/03/22 09:24:46;;;;;;;6.03;4.30;;;;;;;9.49;41.73;99681.54;1676743;84;21301;-63
2021/03/22 09:27:21;;;;;;;8.90;4.08;;;;;;;9.75;40.72;99666.59;1682240;83;21529;-59
2021/03/22 09:30:10;;;;;;;6.53;4.40;;;;;;;10.28;41.26;99664.25;1677972;84;21226;-61
2021/03/22 09:32:44;;;;;;;6.20;4.40;;;;;;;10.28;41.26;99664.25;1678121;83;21582;-62
2021/03/22 09:35:23;;;;;;;6.63;4.30;;;;;;;10.71;40.02;99649.11;1689152;84;21845;-59
2021/03/22 09:37:59;;;;;;;6.40;4.40;;;;;;;11.01;37.71;99649.25;1684898;84;21857;-67
2021/03/22 09:40:34;;;;;;;7.00;4.60;;;;;;;11.28;37.49;99640.39;1636678;84;21762;-59
2021/03/22 09:43:19;;;;;;;6.87;4.23;;;;;;;11.28;37.49;99640.39;1688359;84;21696;-59
2021/03/22 09:46:03;;;;;;;6.83;4.90;;;;;;;11.26;36.50;99630.68;1690686;83;22274;-59
2021/03/22 09:48:37;;;;;;;6.80;4.47;;;;;;;11.28;37.00;99636.98;1695927;83;21637;-60
2021/03/22 09:51:11;;;;;;;7.73;4.83;;;;;;;11.46;37.15;99631.95;1680048;83;21847;-64
2021/03/22 09:54:01;;;;;;;6.70;4.57;;;;;;;11.63;37.45;99627.08;1664143;84;21934;-61
2021/03/22 09:56:41;;;;;;;5.80;4.20;;;;;;;11.89;37.74;99621.83;1679516;83;21865;-60
2021/03/22 09:59:33;;;;;;;6.27;4.57;;;;;;;12.24;36.10;99624.08;1661127;84;21953;-59
2021/03/22 10:02:40;;;;;;;5.73;4.20;;;;;;;12.51;34.25;99616.09;1690712;83;21906;-66
2021/03/22 10:05:32;;;;;;;5.93;4.03;;;;;;;12.51;34.25;99616.09;1710457;82;21030;-58
2021/03/22 10:08:18;;;;;;;8.05;5.20;;;;;;;12.49;34.08;99616.79;1719662;82;21220;-61
2021/03/22 10:11:15;;;;;;;10.07;6.03;;;;;;;12.34;33.63;99611.34;1705949;82;21376;-60
2021/03/22 10:13:46;;;;;;;19.93;10.23;;;;;;;12.12;34.31;99604.83;1703768;82;21181;-60
2021/03/22 10:16:25;;;;;;;8.03;5.08;;;;;;;11.98;34.92;99605.92;1719951;82;22268;-60
2021/03/22 10:19:03;;;;;;;13.30;7.47;;;;;;;11.86;34.50;99601.34;1707929;82;21762;-59
2021/03/22 10:21:55;;;;;;;9.90;5.93;;;;;;;11.71;34.68;99603.38;1711675;82;21134;-62
2021/03/22 10:24:52;;;;;;;6.58;4.75;;;;;;;11.59;34.45;99600.61;1718558;82;21810;-61
2021/03/22 10:27:28;;;;;;;6.50;4.50;;;;;;;11.46;34.34;99604.55;1703574;82;21154;-61
2021/03/22 10:33:05;;;;;;;7.25;5.12;;;;;;;11.01;35.96;99591.88;1795670;78;27835;-61
2021/03/22 10:35:55;;;;;;;5.90;4.70;;;;;;;11.07;35.67;99588.47;1788889;79;21103;-61
2021/03/22 10:38:33;;;;;;;6.23;4.20;;;;;;;11.07;35.06;99587.16;1784904;78;21712;-60
2021/03/22 10:41:04;;;;;;;6.97;4.97;;;;;;;10.86;35.43;99589.47;1776431;79;22011;-60
2021/03/22 10:43:38;;;;;;;5.40;4.10;;;;;;;10.79;36.40;99584.75;1779070;79;21708;-60
2021/03/22 10:46:16;;;;;;;6.63;4.77;;;;;;;10.80;36.16;99582.47;1788805;77;21634;-60
2021/03/22 10:48:45;;;;;;;6.23;4.23;;;;;;;10.76;35.38;99574.72;1765338;78;21715;-61
2021/03/22 10:51:19;;;;;;;6.17;4.33;;;;;;;10.71;34.86;99568.81;1776025;77;21724;-61
2021/03/22 10:53:58;;;;;;;7.10;4.77;;;;;;;10.79;35.10;99567.80;1780742;79;21706;-62
2021/03/22 10:56:35;;;;;;;7.53;4.90;;;;;;;10.93;35.68;99562.39;1772443;79;21703;-61
2021/03/22 10:59:08;;;;;;;6.87;4.33;;;;;;;11.14;35.09;99563.98;1783867;79;22580;-60
2021/03/22 11:01:38;;;;;;;6.87;4.30;;;;;;;11.20;34.99;99552.71;1798973;77;21758;-60
2021/03/22 11:04:21;;;;;;;6.40;4.27;;;;;;;11.20;34.99;99552.71;1781713;79;21659;-60
2021/03/22 11:06:50;;;;;;;7.50;4.70;;;;;;;11.31;35.00;99547.38;1791652;79;21784;-62
2021/03/22 11:09:28;;;;;;;9.53;5.07;;;;;;;11.52;34.82;99539.80;1784685;79;22389;-61
2021/03/22 11:11:58;;;;;;;7.50;5.30;;;;;;;11.65;34.96;99537.63;1781791;79;21669;-62
2021/03/22 11:14:29;;;;;;;6.80;5.33;;;;;;;11.74;33.48;99540.28;1749455;81;21662;-61
2021/03/22 11:17:00;;;;;;;7.95;5.05;;;;;;;11.61;33.26;99540.35;1743143;82;21691;-61
2021/03/22 11:19:45;;;;;;;6.67;4.87;;;;;;;11.46;33.68;99547.12;1740424;80;21186;-63
2021/03/22 11:22:27;;;;;;;5.80;4.70;;;;;;;11.15;34.48;99538.69;1744794;80;21906;-61
2021/03/22 11:24:56;;;;;;;16.10;9.00;;;;;;;10.67;34.98;99544.16;1761071;80;21958;-60
2021/03/22 11:27:30;;;;;;;10.27;6.63;;;;;;;10.24;36.02;99540.09;1729310;80;21874;-61
2021/03/22 11:30:04;;;;;;;9.40;5.60;;;;;;;10.08;36.87;99528.75;1700077;80;22068;-62
2021/03/22 11:32:33;;;;;;;7.90;4.83;;;;;;;10.27;37.65;99521.20;1726417;82;21691;-61
2021/03/22 11:35:28;;;;;;;8.20;4.70;;;;;;;10.27;37.65;99521.20;1714662;82;21670;-62
2021/03/22 11:38:05;;;;;;;6.77;5.00;;;;;;;10.58;36.13;99526.62;1757607;79;22921;-60
2021/03/22 11:40:34;;;;;;;9.03;6.27;;;;;;;10.46;36.71;99526.42;1711715;82;20958;-61
2021/03/22 11:43:25;;;;;;;6.67;4.93;;;;;;;10.36;36.50;99522.59;1726654;82;21450;-61
2021/03/22 11:45:54;;;;;;;6.83;4.78;;;;;;;10.36;36.50;99522.59;1726001;82;21520;-60
2021/03/22 11:48:29;;;;;;;8.40;5.60;;;;;;;10.25;36.40;99527.89;1724898;82;21576;-68
2021/03/22 11:51:04;;;;;;;7.20;4.77;;;;;;;10.06;36.76;99526.03;1738411;82;22802;-62
2021/03/22 11:53:32;;;;;;;9.43;6.53;;;;;;;9.93;37.65;99527.61;1733006;82;21932;-61
2021/03/22 11:56:23;;;;;;;9.10;6.77;;;;;;;9.82;37.64;99522.97;1733491;80;21470;-64
2021/03/22 11:58:50;;;;;;;8.83;5.80;;;;;;;9.81;38.37;99521.37;1667781;84;21574;-61
2021/03/22 12:01:28;;;;;;;7.70;5.27;;;;;;;9.81;38.37;99521.37;1682305;84;21536;-64
2021/03/22 12:04:10;;;;;;;6.53;4.33;;;;;;;9.81;37.43;99512.27;1682042;84;21679;-63
2021/03/22 12:07:03;;;;;;;7.60;5.42;;;;;;;9.77;37.66;99512.83;1692252;84;21391;-62
2021/03/22 12:09:33;;;;;;;7.80;5.50;;;;;;;9.77;38.04;99507.63;1683625;84;21389;-61
2021/03/22 12:12:09;;;;;;;7.47;5.03;;;;;;;9.99;38.33;99509.88;1679419;84;21093;-61
2021/03/22 12:14:38;;;;;;;7.57;4.97;;;;;;;10.30;36.88;99505.15;1682848;84;21507;-61
2021/03/22 12:17:21;;;;;;;7.77;4.97;;;;;;;10.55;36.19;99497.05;1689850;83;21323;-68
2021/03/22 12:19:49;;;;;;;17.00;11.40;;;;;;;10.55;36.19;99497.05;1706163;83;21883;-62
2021/03/22 12:22:19;;;;;;;10.23;5.90;;;;;;;10.67;35.77;99502.45;1684049;84;21483;-66
2021/03/22 12:24:48;;;;;;;13.30;9.17;;;;;;;10.57;35.56;99492.92;1689769;84;21646;-69
2021/03/22 12:27:18;;;;;;;41.00;24.13;;;;;;;10.59;35.49;99487.02;1685073;82;21746;-61
2021/03/22 12:29:46;;;;;;;54.40;35.97;;;;;;;10.59;35.49;99487.02;1685257;84;21463;-62
2021/03/22 12:32:23;;;;;;;14.77;10.20;;;;;;;10.80;36.04;99482.89;1689146;84;21431;-60
2021/03/22 12:34:52;;;;;;;22.13;16.27;;;;;;;10.80;36.04;99482.89;1698764;84;21617;-67
2021/03/22 12:37:28;;;;;;;10.40;8.20;;;;;;;10.90;35.73;99479.85;1686695;84;22051;-60
2021/03/22 12:39:56;;;;;;;9.37;6.23;;;;;;;10.95;35.53;99478.25;1716933;82;22123;-62
2021/03/22 12:42:26;;;;;;;10.30;5.97;;;;;;;11.07;35.10;99477.63;1733142;82;21767;-63
2021/03/22 12:44:55;;;;;;;7.23;5.17;;;;;;;11.14;34.86;99477.90;1726977;82;22022;-68
2021/03/22 12:47:30;;;;;;;7.57;4.70;;;;;;;11.03;33.72;99477.23;1717819;82;22922;-63
2021/03/22 12:50:00;;;;;;;10.07;4.90;;;;;;;10.80;34.61;99487.31;1724072;82;21736;-61
2021/03/22 12:52:28;;;;;;;6.93;5.10;;;;;;;10.59;33.83;99489.13;1727305;82;21514;-60
2021/03/22 12:54:58;;;;;;;25.77;23.07;;;;;;;10.32;34.79;99479.21;1726717;80;21829;-66
2021/03/22 12:57:27;;;;;;;9.27;7.80;;;;;;;10.32;34.79;99479.21;1723127;80;21996;-61
2021/03/22 12:59:56;;;;;;;17.60;15.73;;;;;;;10.23;35.25;99484.30;1717112;82;22146;-62
2021/03/22 13:02:27;;;;;;;10.17;8.17;;;;;;;10.23;35.25;99484.30;1724023;82;21297;-61
2021/03/22 13:04:57;;;;;;;10.55;9.18;;;;;;;10.05;34.95;99486.17;1727629;82;21534;-63
2021/03/22 13:07:26;;;;;;;8.40;6.13;;;;;;;9.88;35.67;99488.33;1715664;82;21987;-61
2021/03/22 13:09:54;;;;;;;9.90;6.57;;;;;;;9.81;35.87;99480.20;1721032;82;21459;-62
2021/03/22 13:12:27;;;;;;;14.50;10.90;;;;;;;9.68;35.69;99478.38;1723866;82;22276;-61
2021/03/22 13:14:56;;;;;;;10.37;8.67;;;;;;;9.68;35.69;99478.38;1696514;82;21373;-61
2021/03/22 13:17:30;;;;;;;8.57;7.40;;;;;;;9.53;36.26;99479.03;1722252;82;21400;-60
2021/03/22 13:20:00;;;;;;;9.07;5.67;;;;;;;9.39;36.14;99479.47;1719247;82;21460;-59
2021/03/22 13:22:30;;;;;;;6.77;5.40;;;;;;;9.25;36.28;99478.62;1714831;82;21366;-58
2021/03/22 13:25:01;;;;;;;8.67;4.87;;;;;;;9.22;36.81;99475.11;1732680;82;21357;-60
2021/03/22 13:27:30;;;;;;;7.70;4.87;;;;;;;9.31;36.87;99475.23;1733451;80;21201;-59
2021/03/22 13:29:59;;;;;;;7.70;5.07;;;;;;;9.34;37.00;99474.86;1725270;82;21256;-60
2021/03/22 13:32:28;;;;;;;8.00;5.63;;;;;;;9.32;37.26;99476.86;1720885;82;21304;-63
2021/03/22 13:34:58;;;;;;;56.17;49.37;;;;;;;9.33;37.27;99478.97;1719853;82;21872;-59
2021/03/22 13:37:28;;;;;;;25.00;22.23;;;;;;;9.28;36.57;99476.13;1711662;82;22113;-60
2021/03/22 13:39:57;;;;;;;8.10;6.27;;;;;;;9.19;37.04;99479.39;1655008;85;21466;-61
2021/03/22 13:42:26;;;;;;;8.60;4.60;;;;;;;9.17;37.28;99469.70;1675040;84;21579;-61
2021/03/22 13:44:55;;;;;;;7.33;4.93;;;;;;;9.11;36.97;99475.66;1669371;84;21405;-59
2021/03/22 13:47:24;;;;;;;7.77;5.20;;;;;;;9.05;36.92;99469.41;1686174;84;21458;-60
2021/03/22 13:49:53;;;;;;;8.73;6.27;;;;;;;8.94;37.10;99470.78;1679298;84;21433;-60
2021/03/22 13:52:25;;;;;;;10.97;6.97;;;;;;;8.85;37.87;99466.70;1681711;84;21521;-60
2021/03/22 13:54:53;;;;;;;;;;;;;;;8.77;37.97;99460.37;1674685;84;21953;-62
2021/03/22 13:57:22;;;;;;;7.37;4.80;;;;;;;8.66;38.74;99462.19;1680109;84;20335;-60
2021/03/22 13:59:51;;;;;;;7.20;4.70;;;;;;;8.57;38.56;99465.94;1681950;84;22642;-60
2021/03/22 14:02:21;;;;;;;6.23;4.73;;;;;;;8.45;38.48;99458.66;1668538;84;22276;-63
2021/03/22 14:04:49;;;;;;;7.70;5.40;;;;;;;8.34;38.76;99461.74;1669792;84;21322;-60
2021/03/22 14:07:17;;;;;;;7.70;5.13;;;;;;;8.24;38.96;99459.95;1675252;84;21365;-60
2021/03/22 14:09:46;;;;;;;8.00;5.60;;;;;;;8.09;39.08;99463.12;1675696;84;21308;-60
2021/03/22 14:12:15;;;;;;;8.10;5.50;;;;;;;7.92;39.27;99459.48;1716973;82;21223;-60
2021/03/22 14:14:47;;;;;;;6.28;4.92;;;;;;;7.81;39.36;99454.78;1712485;82;22283;-67
2021/03/22 14:17:16;;;;;;;7.77;5.03;;;;;;;7.71;40.02;99455.56;1706121;82;21229;-61
2021/03/22 14:19:45;;;;;;;9.33;5.43;;;;;;;7.63;39.83;99447.91;1726220;82;21409;-60
2021/03/22 14:22:14;;;;;;;14.17;9.90;;;;;;;7.61;39.94;99453.75;1710773;82;21887;-60
2021/03/22 14:24:42;;;;;;;29.77;18.70;;;;;;;7.64;40.44;99449.50;1711632;82;21407;-62
2021/03/22 14:27:11;;;;;;;265.10;191.98;;;;;;;7.65;41.31;99453.23;1714646;82;21563;-66
2021/03/22 14:29:40;;;;;;;33.53;23.47;;;;;;;7.61;40.49;99452.45;1715590;82;21138;-62
2021/03/22 14:32:22;;;;;;;15.33;11.63;;;;;;;7.53;40.73;99445.09;1539247;91;21376;-65
2021/03/22 14:34:51;;;;;;;12.88;9.98;;;;;;;7.49;41.38;99450.34;1558503;89;21427;-62
2021/03/22 14:37:20;;;;;;;7.87;6.03;;;;;;;7.42;41.11;99449.45;1561265;89;21206;-61
2021/03/22 14:39:50;;;;;;;8.58;6.12;;;;;;;7.33;41.78;99447.17;1566235;89;22203;-61
2021/03/22 14:42:19;;;;;;;8.05;5.85;;;;;;;7.19;41.95;99441.02;1568600;89;21693;-62
2021/03/22 14:44:48;;;;;;;7.90;6.08;;;;;;;7.03;42.54;99444.11;1572948;89;21274;-61
2021/03/22 14:47:16;;;;;;;8.13;5.70;;;;;;;6.90;42.74;99440.06;1567267;90;21325;-61
2021/03/22 14:49:45;;;;;;;9.68;6.25;;;;;;;6.80;42.81;99436.43;1565942;89;21239;-62
2021/03/22 14:52:14;;;;;;;7.30;5.20;;;;;;;6.72;43.32;99431.84;1564762;89;21444;-61
2021/03/22 14:54:43;;;;;;;6.35;4.72;;;;;;;6.62;43.63;99435.17;1564572;89;21301;-63
2021/03/22 14:57:13;;;;;;;8.83;5.30;;;;;;;6.49;44.39;99435.30;1658496;82;21279;-60
2021/03/22 14:59:42;;;;;;;8.73;6.72;;;;;;;6.38;44.67;99447.87;1695280;82;21563;-62
2021/03/22 15:02:10;;;;;;;9.70;6.90;;;;;;;6.25;45.19;99440.22;1694802;82;21171;-61
2021/03/22 15:04:40;;;;;;;9.58;6.08;;;;;;;6.12;45.98;99436.60;1699184;82;21335;-65
2021/03/22 15:07:11;;;;;;;10.35;6.53;;;;;;;5.99;46.79;99437.19;1695482;82;22477;-59
2021/03/22 15:09:40;;;;;;;11.20;7.97;;;;;;;5.85;47.52;99436.92;1703053;82;21071;-61
2021/03/22 15:12:22;;;;;;;10.08;6.65;;;;;;;5.72;48.53;99433.28;1711595;81;20973;-66
2021/03/22 15:14:51;;;;;;;10.65;7.72;;;;;;;5.58;49.37;99429.18;1720025;81;21224;-62
2021/03/22 15:17:21;;;;;;;10.15;7.50;;;;;;;5.46;50.45;99421.50;1707048;81;21207;-60
2021/03/22 15:19:49;;;;;;;12.47;7.28;;;;;;;5.36;51.70;99431.24;1716764;81;21065;-63
2021/03/22 15:22:18;;;;;;;29.48;16.70;;;;;;;5.27;53.06;99429.69;1713043;81;21216;-66
2021/03/22 15:24:47;;;;;;;44.63;24.77;;;;;;;5.18;54.03;99431.48;1681515;83;21211;-61
2021/03/22 15:27:16;;;;;;;41.37;23.12;;;;;;;5.09;56.29;99431.20;1714124;83;21690;-62
2021/03/22 15:29:45;;;;;;;39.27;18.40;;;;;;;5.01;59.08;99428.17;1716079;81;21209;-63
2021/03/22 15:32:13;;;;;;;29.52;17.92;;;;;;;4.90;61.52;99425.95;1680394;85;21080;-61
2021/03/22 15:34:41;;;;;;;330.62;217.40;;;;;;;4.76;65.89;99426.14;1719890;83;21029;-67
2021/03/22 15:37:10;;;;;;;78.60;45.35;;;;;;;4.64;66.59;99430.85;1679833;84;21148;-64
2021/03/22 15:39:38;;;;;;;53.55;35.83;;;;;;;4.52;67.42;99425.72;1711618;81;21195;-61
2021/03/22 15:42:11;;;;;;;45.98;27.13;;;;;;;4.42;71.00;99430.73;1716775;83;21383;-62
2021/03/22 15:44:39;;;;;;;190.90;148.57;;;;;;;4.28;74.16;99427.03;1712507;81;21121;-67
2021/03/22 15:47:07;;;;;;;526.40;424.68;;;;;;;4.15;77.07;99432.20;1686381;85;21182;-61
2021/03/22 15:49:36;;;;;;;430.07;284.50;;;;;;;4.03;79.93;99431.41;1706462;81;21167;-61
2021/03/22 15:52:05;;;;;;;316.00;193.40;;;;;;;3.89;82.41;99428.48;1720216;81;21804;-63
2021/03/22 15:54:34;;;;;;;127.78;65.78;;;;;;;3.78;85.44;99435.72;1682601;83;21263;-63
2021/03/22 15:57:05;;;;;;;67.42;33.00;;;;;;;3.68;88.08;99436.37;1719579;83;21285;-61
2021/03/22 15:59:34;;;;;;;134.18;91.57;;;;;;;3.55;90.82;99437.61;1679505;83;21179;-62
2021/03/22 16:02:04;;;;;;;229.25;128.72;;;;;;;3.46;94.02;99445.50;1711315;81;21180;-62
2021/03/22 16:04:33;;;;;;;240.62;156.40;;;;;;;3.38;96.46;99450.14;1681340;83;21144;-63
2021/03/22 16:07:04;;;;;;;181.30;96.02;;;;;;;3.30;97.35;99442.39;1717717;81;21400;-62
2021/03/22 16:09:32;;;;;;;766.50;500.50;;;;;;;3.22;98.65;99434.61;1705752;81;21164;-61
2021/03/22 16:12:03;;;;;;;449.58;208.30;;;;;;;3.13;99.81;99444.89;1732159;80;21543;-60
2021/03/22 16:14:33;;;;;;;402.67;161.62;;;;;;;3.06;100.00;99443.89;1749450;80;21191;-60
2021/03/22 16:17:03;;;;;;;270.70;122.45;;;;;;;2.95;100.00;99433.86;1754653;80;21176;-61
2021/03/22 16:19:32;;;;;;;183.07;82.95;;;;;;;2.87;100.00;99439.78;1750419;80;21549;-60